Ursa Minor — ICGH — position and weather

sailwx.info

Track history (hours):
 
Tides and Currents Weather Stations Pressure Air Temp Water Temp Dewpoint Dewpoint Depression Visibility Wind Speed Wind Dir Waves Ship Positions

Ursa Minor

Last reported at 2014-Jul-22 06:26 UTC. Time now 2014-Jul-23 03:20 UTC.
Position N 40°29' E 014°04'.

Length 205 m; draft 8.4 m.

MMSI: 247082300.

Date/timePositionNaut miles runAvg speedWind from/ knotsBaromVisibWave heightAir tempDewpointWater temp
2014-Jul-22 06:26N 40°29' E 014°04'1112.7
2014-Jul-22 05:33N 40°36' E 013°53'1312.7
2014-Jul-22 04:33N 40°43' E 013°39'23012.7
2014-Jul-21 10:30N 43°28' E 010°03'1212.7
2014-Jul-21 09:33N 43°37' E 009°53'1312.7
2014-Jul-21 08:33N 43°47' E 009°42'1313.0
2014-Jul-21 07:33N 43°57' E 009°31'1313.2
2014-Jul-21 06:33N 44°06' E 009°17'1313.1
2014-Jul-21 05:33N 44°14' E 009°03'1212.0
2014-Jul-21 04:34N 44°24' E 008°53'1 0.8
2014-Jul-21 03:30N 44°24' E 008°52'0 0.0
2014-Jul-21 02:27N 44°24' E 008°52'0 0.0
2014-Jul-21 01:30N 44°24' E 008°52'0 0.0
2014-Jul-21 00:28N 44°24' E 008°52'0 0.0
2014-Jul-20 23:28N 44°24' E 008°52'0 0.0
2014-Jul-20 22:33N 44°24' E 008°52'0 0.2
2014-Jul-20 21:34N 44°24' E 008°52'6 5.9
2014-Jul-20 20:33N 44°21' E 008°59'1313.3
2014-Jul-20 19:33N 44°11' E 009°11'1313.2
2014-Jul-20 18:33N 44°01' E 009°23'1313.0
2014-Jul-20 17:33N 43°51' E 009°35'1313.1
2014-Jul-20 16:33N 43°42' E 009°47'1313.3
2014-Jul-20 15:33N 43°32' E 009°59'1312.7
2014-Jul-20 14:33N 43°21' E 010°09'1212.5
2014-Jul-20 13:33N 43°10' E 010°17'1313.0
2014-Jul-20 12:33N 42°59' E 010°26'1212.0
2014-Jul-20 11:33N 42°48' E 010°34'1813.3
2014-Jul-20 10:10N 42°34' E 010°49'15513.1
2014-Jul-19 22:22N 40°52' E 013°26'1113.2
2014-Jul-19 21:33N 40°45' E 013°37'1313.2
2014-Jul-19 20:33N 40°37' E 013°50'1313.2
2014-Jul-19 19:33N 40°28' E 014°04'1313.2
2014-Jul-19 18:33N 40°17' E 014°13'1313.1
2014-Jul-19 17:33N 40°06' E 014°22'1313.1
2014-Jul-19 16:33N 39°55' E 014°31'1313.2
2014-Jul-19 15:32N 39°43' E 014°39'1313.2
2014-Jul-19 14:32N 39°31' E 014°47'  
2014-Jul-12 09:29N 38°12' E 015°36'  
Track history (hours):
 
Tides and Currents Weather Stations Pressure Air Temp Water Temp Dewpoint Dewpoint Depression Visibility Wind Speed Wind Dir Waves Ship Positions

Ursa Minor

Last reported at 2014-Jul-22 06:26 UTC. Time now 2014-Jul-23 03:20 UTC.
Position N 40°29' E 014°04'.

Length 205 m; draft 8.4 m.

MMSI: 247082300.

Date/timePositionNaut miles runAvg speedWind from/ knotsBaromVisibWave heightAir tempDewpointWater temp
2014-Jul-22 06:26N 40°29' E 014°04'1112.7
2014-Jul-22 05:33N 40°36' E 013°53'1312.7
2014-Jul-22 04:33N 40°43' E 013°39'23012.7
2014-Jul-21 10:30N 43°28' E 010°03'1212.7
2014-Jul-21 09:33N 43°37' E 009°53'1312.7
2014-Jul-21 08:33N 43°47' E 009°42'1313.0
2014-Jul-21 07:33N 43°57' E 009°31'1313.2
2014-Jul-21 06:33N 44°06' E 009°17'1313.1
2014-Jul-21 05:33N 44°14' E 009°03'1212.0
2014-Jul-21 04:34N 44°24' E 008°53'1 0.8
2014-Jul-21 03:30N 44°24' E 008°52'0 0.0
2014-Jul-21 02:27N 44°24' E 008°52'0 0.0
2014-Jul-21 01:30N 44°24' E 008°52'0 0.0
2014-Jul-21 00:28N 44°24' E 008°52'0 0.0
2014-Jul-20 23:28N 44°24' E 008°52'0 0.0
2014-Jul-20 22:33N 44°24' E 008°52'0 0.2
2014-Jul-20 21:34N 44°24' E 008°52'6 5.9
2014-Jul-20 20:33N 44°21' E 008°59'1313.3
2014-Jul-20 19:33N 44°11' E 009°11'1313.2
2014-Jul-20 18:33N 44°01' E 009°23'1313.0
2014-Jul-20 17:33N 43°51' E 009°35'1313.1
2014-Jul-20 16:33N 43°42' E 009°47'1313.3
2014-Jul-20 15:33N 43°32' E 009°59'1312.7
2014-Jul-20 14:33N 43°21' E 010°09'1212.5
2014-Jul-20 13:33N 43°10' E 010°17'1313.0
2014-Jul-20 12:33N 42°59' E 010°26'1212.0
2014-Jul-20 11:33N 42°48' E 010°34'1813.3
2014-Jul-20 10:10N 42°34' E 010°49'15513.1
2014-Jul-19 22:22N 40°52' E 013°26'1113.2
2014-Jul-19 21:33N 40°45' E 013°37'1313.2
2014-Jul-19 20:33N 40°37' E 013°50'1313.2
2014-Jul-19 19:33N 40°28' E 014°04'1313.2
2014-Jul-19 18:33N 40°17' E 014°13'1313.1
2014-Jul-19 17:33N 40°06' E 014°22'1313.1
2014-Jul-19 16:33N 39°55' E 014°31'1313.2
2014-Jul-19 15:32N 39°43' E 014°39'1313.2
2014-Jul-19 14:32N 39°31' E 014°47'  
2014-Jul-12 09:29N 38°12' E 015°36'  

Dump ship's entire track history